createdAt,value
2019-05-22T00:01:44.521Z,30.77
2019-05-22T00:04:23.520Z,30.73
2019-05-22T00:06:54.435Z,30.87
2019-05-22T00:09:24.477Z,28.83
2019-05-22T00:11:56.734Z,28.57
2019-05-22T00:14:27.414Z,27.50
2019-05-22T00:16:56.462Z,29.13
2019-05-22T00:19:25.010Z,28.93
2019-05-22T00:21:55.335Z,30.13
2019-05-22T00:24:25.255Z,29.67
2019-05-22T00:26:55.537Z,29.57
2019-05-22T00:29:25.075Z,29.90
2019-05-22T00:31:54.713Z,29.27
2019-05-22T00:34:23.989Z,28.07
2019-05-22T00:36:53.035Z,29.40
2019-05-22T00:39:22.017Z,27.87
2019-05-22T00:41:51.694Z,27.07
2019-05-22T00:44:21.158Z,27.13
2019-05-22T00:46:52.053Z,27.47
2019-05-22T00:49:22.227Z,26.77
2019-05-22T00:52:04.823Z,26.50
2019-05-22T00:54:40.573Z,25.77
2019-05-22T00:57:16.840Z,26.13
2019-05-22T00:59:49.854Z,26.83
2019-05-22T01:02:28.532Z,27.17
2019-05-22T01:04:58.075Z,26.27
2019-05-22T01:07:31.803Z,25.27
2019-05-22T01:10:02.518Z,26.87
2019-05-22T01:12:37.799Z,25.17
2019-05-22T01:15:10.857Z,25.60
2019-05-22T01:17:41.082Z,25.30
2019-05-22T01:20:12.821Z,24.80
2019-05-22T01:22:42.308Z,24.80
2019-05-22T01:25:13.894Z,24.43
2019-05-22T01:27:43.075Z,23.60
2019-05-22T01:30:23.203Z,24.63
2019-05-22T01:32:54.323Z,25.40
2019-05-22T01:35:42.049Z,24.63
2019-05-22T01:38:12.596Z,24.80
2019-05-22T01:40:53.899Z,24.20
2019-05-22T01:43:24.579Z,25.60
2019-05-22T01:45:55.062Z,23.47
2019-05-22T01:48:27.281Z,24.30
2019-05-22T01:50:58.686Z,24.20
2019-05-22T01:53:31.593Z,23.33
2019-05-22T01:56:01.971Z,23.70
2019-05-22T01:58:31.527Z,23.57
2019-05-22T02:01:02.044Z,22.63
2019-05-22T02:03:31.755Z,24.27
2019-05-22T02:06:01.271Z,23.07
2019-05-22T02:08:32.104Z,24.07
2019-05-22T02:11:01.527Z,24.03
2019-05-22T02:13:40.220Z,22.83
2019-05-22T02:16:08.963Z,22.33
2019-05-22T02:18:40.283Z,22.90
2019-05-22T02:21:10.602Z,24.27
2019-05-22T02:23:40.712Z,22.07
2019-05-22T02:26:10.763Z,22.37
2019-05-22T02:28:40.323Z,22.33
2019-05-22T02:31:11.048Z,21.63
2019-05-22T02:33:41.096Z,20.43
2019-05-22T02:36:10.184Z,21.00
2019-05-22T02:38:39.952Z,20.00
2019-05-22T02:41:09.279Z,19.83
2019-05-22T02:43:37.692Z,20.00
2019-05-22T02:46:07.754Z,18.77
2019-05-22T02:48:37.114Z,19.17
2019-05-22T02:51:05.528Z,17.43
2019-05-22T02:53:33.962Z,17.93
2019-05-22T02:56:02.876Z,15.67
2019-05-22T02:58:31.343Z,15.00
2019-05-22T03:01:02.609Z,16.97
2019-05-22T03:03:32.059Z,16.17
2019-05-22T03:06:02.266Z,15.57
2019-05-22T03:08:34.455Z,15.00
2019-05-22T03:11:03.889Z,14.50
2019-05-22T03:13:55.015Z,13.13
2019-05-22T03:16:23.492Z,12.27
2019-05-22T03:19:08.168Z,11.60
2019-05-22T03:21:25.099Z,11.50
2019-05-22T03:23:54.197Z,10.47
2019-05-22T03:26:24.518Z,10.03
2019-05-22T03:28:53.262Z,9.77
2019-05-22T03:31:22.180Z,9.23
2019-05-22T03:33:50.759Z,9.07
2019-05-22T03:36:20.921Z,8.73
2019-05-22T03:38:50.549Z,9.50
2019-05-22T03:41:19.475Z,9.30
2019-05-22T03:43:50.803Z,9.17
2019-05-22T03:46:35.831Z,9.13
2019-05-22T03:49:05.296Z,10.37
2019-05-22T03:51:34.895Z,10.80
2019-05-22T03:54:03.581Z,10.77
2019-05-22T03:56:32.515Z,10.80
2019-05-22T03:59:02.271Z,11.53
2019-05-22T04:01:32.325Z,10.93
2019-05-22T04:04:02.818Z,10.80
2019-05-22T04:06:32.949Z,11.13
2019-05-22T04:09:06.068Z,11.83
2019-05-22T04:11:38.729Z,11.80
2019-05-22T04:14:07.480Z,11.30
2019-05-22T04:16:35.896Z,11.27
2019-05-22T04:19:05.048Z,10.50
2019-05-22T04:21:33.594Z,11.53
2019-05-22T04:24:03.096Z,12.30
2019-05-22T04:26:33.227Z,12.90
2019-05-22T04:29:01.800Z,12.73
2019-05-22T04:31:49.862Z,13.13
2019-05-22T04:34:20.651Z,13.37
2019-05-22T04:36:50.839Z,14.00
2019-05-22T04:39:26.340Z,13.87
2019-05-22T04:41:56.251Z,14.50
2019-05-22T04:44:26.275Z,13.73
2019-05-22T04:46:55.427Z,13.97
2019-05-22T04:49:24.549Z,14.50
2019-05-22T04:51:53.093Z,14.63
2019-05-22T04:54:21.511Z,13.63
2019-05-22T04:56:51.334Z,13.23
2019-05-22T04:59:20.302Z,13.50
2019-05-22T05:01:50.654Z,13.50
2019-05-22T05:04:19.142Z,14.40
2019-05-22T05:06:47.792Z,14.70
2019-05-22T05:09:16.685Z,13.80
2019-05-22T05:11:45.164Z,13.50
2019-05-22T05:14:13.706Z,13.70
2019-05-22T05:16:43.197Z,14.60
2019-05-22T05:19:11.786Z,14.80
2019-05-22T05:21:40.556Z,14.20
2019-05-22T05:24:09.114Z,13.73
2019-05-22T05:26:39.158Z,14.30
2019-05-22T05:29:10.077Z,15.10
2019-05-22T05:31:40.127Z,14.37
2019-05-22T05:34:14.295Z,13.63
2019-05-22T05:36:44.679Z,12.93
2019-05-22T05:39:36.832Z,14.43
2019-05-22T05:42:05.816Z,12.73
2019-05-22T05:44:35.036Z,13.80
2019-05-22T05:47:04.691Z,13.77
2019-05-22T05:49:33.192Z,13.87
2019-05-22T05:52:03.616Z,13.63
2019-05-22T05:54:32.103Z,12.43
2019-05-22T05:57:32.970Z,13.30
2019-05-22T06:00:04.923Z,12.70
2019-05-22T06:02:33.820Z,12.93
2019-05-22T06:05:03.688Z,13.37
2019-05-22T06:07:32.235Z,12.57
2019-05-22T06:10:25.236Z,14.03
2019-05-22T06:12:53.819Z,13.33
2019-05-22T06:15:45.813Z,13.00
2019-05-22T06:18:12.530Z,12.50
2019-05-22T06:20:41.459Z,12.43
2019-05-22T06:23:32.204Z,11.83
2019-05-22T06:26:02.352Z,11.70
2019-05-22T06:28:37.837Z,12.07
2019-05-22T06:31:09.046Z,11.93
2019-05-22T06:33:38.730Z,11.57
2019-05-22T06:36:11.479Z,11.73
2019-05-22T06:38:49.738Z,10.83
2019-05-22T06:41:20.036Z,11.30
2019-05-22T06:44:09.619Z,11.13
2019-05-22T06:46:46.221Z,12.07
2019-05-22T06:49:35.968Z,11.47
2019-05-22T06:52:06.311Z,11.20
2019-05-22T06:54:35.086Z,11.03
2019-05-22T06:57:05.854Z,10.70
2019-05-22T06:59:34.343Z,10.07
2019-05-22T07:02:04.397Z,10.27
2019-05-22T07:04:33.116Z,9.50
2019-05-22T07:07:03.595Z,9.37
2019-05-22T07:09:32.829Z,9.47
2019-05-22T07:12:01.379Z,9.00
2019-05-22T07:14:31.495Z,9.47
2019-05-22T07:16:59.899Z,9.47
2019-05-22T07:19:29.078Z,8.60
2019-05-22T07:21:58.611Z,8.53
2019-05-22T07:24:27.656Z,8.10
2019-05-22T07:26:59.294Z,7.97
2019-05-22T07:29:27.843Z,7.97
2019-05-22T07:32:02.209Z,7.23
2019-05-22T07:34:30.495Z,7.53
2019-05-22T07:36:59.140Z,7.47
2019-05-22T07:39:27.816Z,7.70
2019-05-22T07:41:56.297Z,7.30
2019-05-22T07:44:24.738Z,6.30
2019-05-22T07:46:54.599Z,6.20
2019-05-22T07:49:23.267Z,5.87
2019-05-22T07:51:58.850Z,5.53
2019-05-22T07:54:22.047Z,5.97
2019-05-22T07:56:51.262Z,7.23
2019-05-22T07:59:19.941Z,6.40
2019-05-22T08:01:48.470Z,5.53
2019-05-22T08:04:18.579Z,6.30
2019-05-22T08:06:47.138Z,5.80
2019-05-22T08:09:18.081Z,6.27
2019-05-22T08:11:47.275Z,6.83
2019-05-22T08:14:17.220Z,6.23
2019-05-22T08:16:46.130Z,5.70
2019-05-22T08:19:14.679Z,5.37
2019-05-22T08:21:43.155Z,6.00
2019-05-22T08:24:11.873Z,5.73
2019-05-22T08:26:53.802Z,5.70
2019-05-22T08:29:11.208Z,6.13
2019-05-22T08:31:40.944Z,5.73
2019-05-22T08:34:09.884Z,5.40
2019-05-22T08:36:39.352Z,5.00
2019-05-22T08:39:09.867Z,5.70
2019-05-22T08:41:41.349Z,5.50
2019-05-22T08:44:16.848Z,5.43
2019-05-22T08:46:40.132Z,5.20
2019-05-22T08:49:08.709Z,5.10
2019-05-22T08:51:37.279Z,4.97
2019-05-22T08:54:06.426Z,4.93
2019-05-22T08:56:39.120Z,5.33
2019-05-22T08:59:18.871Z,5.30
2019-05-22T09:01:38.930Z,5.50
2019-05-22T09:04:07.939Z,4.93
2019-05-22T09:06:36.568Z,5.10
2019-05-22T09:09:06.619Z,4.70
2019-05-22T09:11:35.116Z,4.40
2019-05-22T09:14:03.960Z,4.10
2019-05-22T09:16:32.367Z,4.30
2019-05-22T09:19:01.374Z,4.80
2019-05-22T09:21:29.784Z,4.63
2019-05-22T09:24:00.667Z,5.17
2019-05-22T09:26:29.544Z,5.00
2019-05-22T09:28:58.515Z,5.00
2019-05-22T09:31:27.000Z,5.63
2019-05-22T09:33:55.403Z,4.87
2019-05-22T09:36:24.183Z,4.70
2019-05-22T09:38:52.956Z,5.00
2019-05-22T09:41:21.787Z,5.10
2019-05-22T09:43:50.206Z,4.70
2019-05-22T09:46:19.171Z,5.00
2019-05-22T09:48:48.011Z,4.40
2019-05-22T09:51:16.526Z,4.60
2019-05-22T09:53:45.307Z,4.73
2019-05-22T09:56:13.950Z,4.60
2019-05-22T09:58:42.363Z,4.63
2019-05-22T10:01:12.113Z,5.03
2019-05-22T10:03:40.735Z,5.37
2019-05-22T10:06:09.331Z,4.60
2019-05-22T10:08:38.083Z,5.10
2019-05-22T10:11:06.613Z,5.80
2019-05-22T10:13:35.606Z,5.77
2019-05-22T10:16:04.558Z,5.80
2019-05-22T10:18:33.343Z,4.97
2019-05-22T10:21:02.128Z,5.13
2019-05-22T10:23:31.829Z,5.43
2019-05-22T10:26:00.648Z,5.23
2019-05-22T10:28:29.523Z,5.27
2019-05-22T10:30:59.003Z,5.20
2019-05-22T10:33:28.268Z,6.10
2019-05-22T10:35:56.679Z,5.50
2019-05-22T10:38:24.818Z,5.20
2019-05-22T10:40:53.226Z,4.60
2019-05-22T10:43:21.781Z,4.67
2019-05-22T10:45:50.253Z,5.73
2019-05-22T10:48:18.749Z,5.67
2019-05-22T10:50:47.247Z,5.97
2019-05-22T10:53:32.473Z,5.03
2019-05-22T10:55:46.560Z,4.77
2019-05-22T10:58:15.502Z,4.70
2019-05-22T11:00:44.397Z,5.40
2019-05-22T11:03:14.755Z,6.30
2019-05-22T11:05:43.979Z,5.17
2019-05-22T11:08:12.790Z,5.00
2019-05-22T11:10:45.022Z,5.40
2019-05-22T11:13:12.358Z,6.33
2019-05-22T11:15:40.759Z,6.00
2019-05-22T11:18:09.972Z,5.43
2019-05-22T11:20:38.436Z,6.53
2019-05-22T11:23:07.053Z,5.93
2019-05-22T11:25:35.576Z,5.97
2019-05-22T11:28:04.191Z,5.33
2019-05-22T11:30:33.443Z,5.80
2019-05-22T11:33:02.120Z,5.87
2019-05-22T11:35:33.069Z,6.37
2019-05-22T11:38:01.539Z,6.03
2019-05-22T11:40:30.007Z,5.90
2019-05-22T11:42:59.255Z,5.97
2019-05-22T11:45:27.794Z,5.50
2019-05-22T11:47:56.268Z,6.30
2019-05-22T11:50:25.303Z,5.80
2019-05-22T11:52:53.703Z,5.57
2019-05-22T11:55:22.126Z,6.33
2019-05-22T11:57:51.546Z,6.80
2019-05-22T12:00:21.266Z,6.97
2019-05-22T12:02:51.446Z,6.97
2019-05-22T12:05:20.656Z,7.00
2019-05-22T12:07:50.066Z,6.70
2019-05-22T12:10:21.052Z,6.40
2019-05-22T12:12:51.282Z,6.27
2019-05-22T12:15:23.763Z,6.47
2019-05-22T12:17:52.521Z,5.60
2019-05-22T12:20:22.028Z,5.47
2019-05-22T12:22:51.175Z,5.00
2019-05-22T12:25:19.939Z,4.70
2019-05-22T12:27:48.683Z,4.90
2019-05-22T12:30:18.636Z,5.20
2019-05-22T12:32:47.841Z,5.20
2019-05-22T12:35:16.700Z,5.50
2019-05-22T12:37:45.747Z,4.87
2019-05-22T12:40:19.128Z,4.97
2019-05-22T12:42:48.646Z,4.93
2019-05-22T12:45:18.865Z,5.53
2019-05-22T12:47:47.704Z,5.00
2019-05-22T12:50:19.683Z,4.97
2019-05-22T12:52:49.603Z,5.30
2019-05-22T12:55:20.438Z,5.30
2019-05-22T12:57:49.484Z,4.93
2019-05-22T13:00:21.539Z,5.37
2019-05-22T13:02:50.296Z,5.30
2019-05-22T13:05:18.923Z,5.50
2019-05-22T13:07:47.860Z,5.37
2019-05-22T13:10:17.496Z,5.00
2019-05-22T13:12:46.231Z,5.30
2019-05-22T13:15:15.296Z,5.47
2019-05-22T13:17:43.694Z,4.63
2019-05-22T13:20:13.703Z,4.40
2019-05-22T13:22:47.666Z,3.93
2019-05-22T13:25:18.963Z,4.10
2019-05-22T13:27:48.720Z,4.00
2019-05-22T13:30:19.599Z,4.40
2019-05-22T13:32:49.221Z,4.60
2019-05-22T13:35:19.059Z,4.90
2019-05-22T13:37:47.900Z,4.93
2019-05-22T13:40:27.508Z,4.60
2019-05-22T13:42:49.159Z,4.37
2019-05-22T13:45:28.480Z,4.43
2019-05-22T13:47:48.571Z,4.20
2019-05-22T13:50:18.672Z,4.20
2019-05-22T13:52:47.476Z,4.30
2019-05-22T13:55:17.492Z,4.17
2019-05-22T13:57:47.502Z,4.23
2019-05-22T14:00:18.803Z,3.80
2019-05-22T14:02:47.745Z,3.77
2019-05-22T14:05:17.680Z,3.77
2019-05-22T14:07:46.527Z,3.43
2019-05-22T14:10:16.883Z,3.80
2019-05-22T14:12:45.363Z,3.67
2019-05-22T14:15:15.098Z,3.47
2019-05-22T14:17:43.594Z,3.83
2019-05-22T14:20:14.707Z,3.60
2019-05-22T14:22:43.180Z,3.40
2019-05-22T14:25:12.240Z,3.60
2019-05-22T14:27:43.663Z,3.07
2019-05-22T14:30:13.309Z,3.50
2019-05-22T14:32:41.975Z,3.93
2019-05-22T14:35:11.927Z,3.57
2019-05-22T14:37:41.264Z,2.73
2019-05-22T14:40:11.610Z,3.87
2019-05-22T14:42:40.191Z,3.43
2019-05-22T14:45:09.538Z,3.17
2019-05-22T14:47:38.298Z,2.60
2019-05-22T14:50:08.511Z,2.90
2019-05-22T14:52:37.160Z,2.70
2019-05-22T14:55:07.389Z,2.30
2019-05-22T14:57:36.846Z,2.90
2019-05-22T15:00:11.816Z,2.67
2019-05-22T15:02:40.494Z,2.40
2019-05-22T15:05:10.900Z,2.67
2019-05-22T15:07:40.140Z,2.50
2019-05-22T15:10:10.375Z,2.20
2019-05-22T15:12:39.024Z,2.57
2019-05-22T15:15:09.507Z,2.30
2019-05-22T15:17:38.379Z,2.53
2019-05-22T15:20:09.948Z,2.70
2019-05-22T15:22:38.901Z,2.23
2019-05-22T15:25:10.691Z,3.23
2019-05-22T15:27:39.340Z,3.23
2019-05-22T15:30:09.091Z,2.60
2019-05-22T15:32:37.572Z,3.07
2019-05-22T15:35:06.574Z,2.57
2019-05-22T15:37:36.120Z,2.80
2019-05-22T15:40:06.730Z,3.20
2019-05-22T15:42:45.803Z,3.17
2019-05-22T15:45:20.870Z,3.00
2019-05-22T15:47:55.256Z,2.80
2019-05-22T15:50:28.885Z,2.63
2019-05-22T15:53:02.491Z,2.70
2019-05-22T15:55:31.486Z,4.43
2019-05-22T15:58:01.596Z,2.90
2019-05-22T16:00:34.583Z,3.27
2019-05-22T16:03:12.370Z,3.20
2019-05-22T16:05:42.195Z,3.40
2019-05-22T16:08:11.138Z,3.60
2019-05-22T16:10:41.257Z,3.10
2019-05-22T16:13:12.542Z,2.93
2019-05-22T16:15:44.051Z,2.93
2019-05-22T16:18:13.666Z,3.20
2019-05-22T16:20:43.092Z,3.17
2019-05-22T16:23:11.668Z,3.00
2019-05-22T16:25:41.139Z,3.20
2019-05-22T16:28:10.463Z,3.23
2019-05-22T16:30:39.983Z,3.50
2019-05-22T16:33:10.092Z,3.80
2019-05-22T16:35:38.820Z,3.70
2019-05-22T16:38:07.751Z,4.10
2019-05-22T16:40:37.363Z,3.67
2019-05-22T16:43:05.915Z,4.20
2019-05-22T16:45:35.853Z,4.37
2019-05-22T16:48:07.095Z,3.50
2019-05-22T16:50:37.407Z,3.33
2019-05-22T16:53:08.792Z,4.10
2019-05-22T16:55:39.512Z,3.67
2019-05-22T16:58:08.255Z,3.30
2019-05-22T17:00:37.608Z,3.57
2019-05-22T17:03:06.988Z,4.07
2019-05-22T17:05:35.700Z,3.90
2019-05-22T17:08:05.000Z,4.10
2019-05-22T17:10:33.640Z,4.30
2019-05-22T17:13:03.850Z,4.00
2019-05-22T17:15:34.961Z,3.83
2019-05-22T17:18:04.352Z,3.73
2019-05-22T17:20:33.923Z,4.13
2019-05-22T17:23:02.975Z,3.80
2019-05-22T17:25:32.882Z,4.90
2019-05-22T17:28:02.318Z,5.00
2019-05-22T17:30:32.207Z,4.90
2019-05-22T17:33:00.875Z,4.50
2019-05-22T17:35:30.595Z,5.07
2019-05-22T17:37:59.300Z,4.80
2019-05-22T17:40:28.112Z,4.90
2019-05-22T17:42:57.199Z,5.10
2019-05-22T17:45:28.695Z,4.87
2019-05-22T17:47:57.607Z,4.77
2019-05-22T17:50:27.852Z,4.63
2019-05-22T17:52:57.095Z,4.60
2019-05-22T17:55:26.712Z,5.00
2019-05-22T17:57:55.459Z,4.70
2019-05-22T18:00:31.943Z,5.20
2019-05-22T18:03:01.779Z,5.60
2019-05-22T18:05:30.797Z,5.10
2019-05-22T18:07:59.475Z,4.93
2019-05-22T18:10:29.681Z,4.77
2019-05-22T18:12:58.392Z,5.07
2019-05-22T18:15:26.870Z,4.60
2019-05-22T18:17:55.037Z,5.33
2019-05-22T18:20:24.308Z,5.47
2019-05-22T18:22:52.951Z,5.50
2019-05-22T18:25:21.705Z,5.57
2019-05-22T18:27:51.077Z,5.90
2019-05-22T18:30:20.446Z,5.90
2019-05-22T18:32:49.097Z,6.07
2019-05-22T18:35:17.640Z,5.50
2019-05-22T18:37:46.637Z,6.33
2019-05-22T18:40:16.038Z,5.97
2019-05-22T18:42:44.776Z,5.80
2019-05-22T18:45:13.703Z,6.53
2019-05-22T18:47:42.574Z,6.10
2019-05-22T18:50:12.546Z,5.47
2019-05-22T18:52:46.660Z,6.17
2019-05-22T18:55:15.793Z,5.20
2019-05-22T18:57:44.363Z,5.77
2019-05-22T19:00:13.655Z,6.20
2019-05-22T19:02:42.121Z,6.33
2019-05-22T19:05:10.703Z,6.70
2019-05-22T19:07:39.111Z,6.50
2019-05-22T19:10:08.128Z,6.70
2019-05-22T19:12:36.598Z,6.83
2019-05-22T19:15:09.047Z,7.00
2019-05-22T19:17:37.446Z,7.03
2019-05-22T19:20:07.221Z,7.37
2019-05-22T19:22:36.040Z,7.23
2019-05-22T19:25:05.089Z,7.33
2019-05-22T19:30:10.515Z,7.03
2019-05-22T19:32:39.301Z,6.93
2019-05-22T19:35:09.810Z,6.93
2019-05-22T19:37:38.482Z,6.93
2019-05-22T19:40:08.323Z,7.17
2019-05-22T19:42:37.099Z,7.43
2019-05-22T19:45:10.897Z,6.73
2019-05-22T19:47:42.961Z,7.33
2019-05-22T19:50:22.951Z,7.17
2019-05-22T19:52:43.295Z,7.60
2019-05-22T19:55:14.044Z,6.67
2019-05-22T19:57:43.339Z,8.00
2019-05-22T20:00:12.487Z,7.60
2019-05-22T20:02:42.108Z,8.47
2019-05-22T20:05:11.718Z,8.30
2019-05-22T20:07:40.989Z,8.10
2019-05-22T20:10:11.283Z,7.73
2019-05-22T20:12:41.027Z,7.83
2019-05-22T20:15:10.180Z,7.97
2019-05-22T20:17:38.643Z,7.53
2019-05-22T20:20:10.190Z,7.70
2019-05-22T20:22:40.059Z,7.83
2019-05-22T20:25:09.987Z,8.33
2019-05-22T20:27:39.610Z,8.47
2019-05-22T20:30:10.226Z,7.80
2019-05-22T20:32:39.631Z,7.60
2019-05-22T20:35:08.856Z,7.07
2019-05-22T20:37:37.329Z,7.57
2019-05-22T20:40:07.457Z,8.30
2019-05-22T20:42:37.012Z,8.47
2019-05-22T20:45:07.134Z,8.37
2019-05-22T20:47:39.341Z,8.23
2019-05-22T20:50:11.215Z,8.07
2019-05-22T20:52:40.165Z,8.43
2019-05-22T20:55:09.485Z,8.40
2019-05-22T20:57:38.059Z,8.13
2019-05-22T21:00:09.837Z,8.13
2019-05-22T21:02:40.156Z,8.20
2019-05-22T21:05:10.931Z,7.80
2019-05-22T21:07:43.082Z,8.63
2019-05-22T21:10:12.303Z,9.27
2019-05-22T21:12:40.956Z,8.67
2019-05-22T21:15:09.972Z,8.90
2019-05-22T21:17:40.019Z,8.93
2019-05-22T21:20:12.134Z,8.47
2019-05-22T21:22:41.814Z,10.37
2019-05-22T21:25:12.101Z,10.40
2019-05-22T21:27:42.426Z,9.43
2019-05-22T21:30:13.979Z,9.10
2019-05-22T21:32:43.598Z,9.50
2019-05-22T21:35:12.904Z,9.30
2019-05-22T21:37:41.381Z,10.37
2019-05-22T21:40:11.100Z,9.70
2019-05-22T21:42:41.742Z,10.33
2019-05-22T21:45:11.110Z,9.57
2019-05-22T21:47:41.493Z,8.93
2019-05-22T21:50:11.407Z,9.23
2019-05-22T21:52:40.081Z,10.10
2019-05-22T21:55:11.170Z,10.00
2019-05-22T21:57:40.293Z,9.17
2019-05-22T22:00:12.851Z,10.30
2019-05-22T22:02:45.215Z,10.53
2019-05-22T22:05:14.858Z,10.27
2019-05-22T22:07:44.587Z,10.47
2019-05-22T22:10:15.963Z,10.97
2019-05-22T22:12:45.559Z,11.47
2019-05-22T22:15:15.002Z,11.53
2019-05-22T22:17:44.205Z,10.90
2019-05-22T22:20:12.758Z,11.13
2019-05-22T22:22:42.013Z,11.40
2019-05-22T22:25:11.308Z,10.87
2019-05-22T22:27:39.794Z,10.97
2019-05-22T22:30:35.075Z,11.17
2019-05-22T22:33:08.212Z,11.27
2019-05-22T22:35:37.354Z,12.23
2019-05-22T22:38:07.103Z,12.23
2019-05-22T22:40:36.031Z,11.70
2019-05-22T22:43:05.548Z,12.27
2019-05-22T22:45:37.100Z,12.13
2019-05-22T22:48:06.036Z,12.53
2019-05-22T22:50:36.003Z,12.27
2019-05-22T22:53:06.147Z,12.50
2019-05-22T22:55:36.517Z,12.70
2019-05-22T22:58:16.616Z,12.50
2019-05-22T23:00:44.767Z,12.77
2019-05-22T23:03:16.716Z,12.87
2019-05-22T23:05:47.016Z,13.57
2019-05-22T23:08:18.771Z,13.77
2019-05-22T23:10:48.702Z,13.77
2019-05-22T23:13:17.551Z,13.33
2019-05-22T23:15:49.038Z,14.03
2019-05-22T23:18:37.082Z,13.17
2019-05-22T23:21:04.701Z,13.47
2019-05-22T23:23:32.015Z,14.47
2019-05-22T23:26:00.455Z,13.50
2019-05-22T23:28:34.522Z,13.03
2019-05-22T23:31:00.805Z,13.87
2019-05-22T23:33:31.015Z,14.17
2019-05-22T23:35:59.427Z,13.57
2019-05-22T23:38:27.830Z,14.37
2019-05-22T23:40:57.258Z,13.23
2019-05-22T23:43:27.807Z,14.23
2019-05-22T23:45:56.926Z,14.23
2019-05-22T23:48:27.267Z,13.87
2019-05-22T23:50:56.231Z,13.83
2019-05-22T23:53:24.974Z,13.40
2019-05-22T23:55:54.015Z,14.40
2019-05-22T23:58:22.978Z,15.10
